Latest Weather Observations for Leigh Creek

IDS60801

Issued at 9:01 pm CDT Saturday 16 December 2017 (issued every 30 minutes, with the page automatically refreshed every 10 minutes)

About weather observations | Map of weather stations | Latest weather observations for SA | Other Formats
Station Details ID: 017110 Name: LEIGH CREEK AIRPORT Lat: -30.60 Lon: 138.42 Height: 258.8 m
Data from the previous 72 hours. | See also: Recent months at Leigh Creek
Date/Time
CDT
Temp
°C
App
Temp
°C
Dew
Point
°C
Rel
Hum
%
Delta-T
°C
Wind Press
QNH
hPa
Press
MSL
hPa
Rain since
9am
mm
Dir  Spd
km/h
Gust
km/h
Spd
kts
Gust
kts
16/09:00pm 31.1 25.3 -1.6 12 15.5 SSW 19 24 10 13 1011.4 1010.0 0.0
16/08:30pm 32.0 26.3 -0.9 12 15.9 SSW 19 26 10 14 1011.0 1009.6 0.0
16/08:00pm 32.9 27.1 -1.4 11 16.5 SSW 19 26 10 14 1010.7 1009.2 0.0
16/07:30pm 33.6 27.3 -0.9 11 16.8 SSW 22 32 12 17 1010.4 1008.9 0.0
16/07:00pm 34.4 27.6 -1.6 10 17.5 SSW 24 32 13 17 1010.1 1008.6 0.0
16/06:30pm 35.3 29.4 -0.9 10 17.9 SSW 20 30 11 16 1009.9 1008.4 0.0
16/06:00pm 36.1 30.3 -0.3 10 18.2 SSW 20 30 11 16 1009.7 1008.2 0.0
16/05:30pm 35.7 30.6 -2.0 9 18.3 SW 15 26 8 14 1009.7 1008.2 0.0
16/05:00pm 36.4 32.3 -0.1 10 18.4 SSW 11 17 6 9 1009.8 1008.3 0.0
16/04:30pm 36.8 31.6 0.2 10 18.6 SW 17 32 9 17 1010.1 1008.6 0.0
16/04:00pm 36.6 32.0 1.4 11 18.2 S 15 24 8 13 1010.5 1009.0 0.0
16/03:30pm 35.4 31.2 1.7 12 17.4 SW 13 20 7 11 1010.8 1009.3 0.0
16/03:00pm 35.0 30.6 2.5 13 16.9 SW 15 26 8 14 1011.0 1009.6 0.0
16/02:30pm 34.3 30.3 3.0 14 16.4 SSW 13 24 7 13 1011.6 1010.2 0.0
16/02:00pm 35.0 30.9 2.5 13 16.9 SSE 13 22 7 12 1011.8 1010.4 0.0
16/01:30pm 34.5 30.7 4.1 15 16.2 SSW 13 28 7 15 1012.3 1010.9 0.0
16/01:00pm 34.0 30.2 3.7 15 16.0 SSW 13 28 7 15 1012.7 1011.2 0.0
16/12:30pm 33.6 29.3 5.2 17 15.3 SW 17 30 9 16 1013.0 1011.5 0.0
16/12:00pm 32.4 29.7 7.3 21 13.9 SSW 11 20 6 11 1013.2 1011.7 0.0
16/11:30am 32.4 28.0 6.6 20 14.1 SSW 19 28 10 15 1013.4 1011.9 0.0
16/11:00am 31.2 26.9 9.4 26 12.4 SSW 22 32 12 17 1013.6 1012.1 0.0
16/10:30am 31.1 27.2 9.3 26 12.4 SSW 20 30 11 16 1013.5 1012.0 0.0
16/10:00am 30.4 27.0 9.3 27 11.9 SSW 17 24 9 13 1013.5 1012.0 0.0
16/09:30am 28.9 26.6 9.1 29 11.1 S 11 17 6 9 1013.4 1011.9 0.0
16/09:00am 27.9 25.5 8.7 30 10.6 S 11 13 6 7 1013.4 1011.9 0.0
16/08:30am 26.5 24.5 8.5 32 9.9 S 9 11 5 6 1013.2 1011.7 0.0
16/08:00am 24.0 22.5 8.4 37 8.4 S 6 11 3 6 1013.0 1011.5 0.0
16/07:30am 21.4 19.9 10.6 50 6.0 S 9 13 5 7 1012.9 1011.4 0.0
16/07:00am 19.6 18.5 10.6 56 4.9 S 7 9 4 5 1012.7 1011.2 0.0
16/06:30am 19.0 17.5 10.6 58 4.6 S 9 13 5 7 1012.3 1010.9 0.0
16/06:00am 18.9 17.4 10.7 59 4.5 S 9 15 5 8 1011.9 1010.5 0.0
16/05:30am 19.3 17.1 10.8 58 4.7 S 13 20 7 11 1011.7 1010.3 0.0
16/05:00am 19.8 16.9 11.0 57 4.9 S 17 22 9 12 1011.4 1010.0 0.0
16/04:30am 20.2 16.9 10.9 55 5.1 SSW 19 24 10 13 1011.3 1009.9 0.0
16/04:00am 20.6 17.8 11.2 55 5.2 SSW 17 20 9 11 1011.3 1009.9 0.0
16/03:30am 21.1 18.2 10.9 52 5.7 SSW 17 22 9 12 1011.0 1009.6 0.0
16/03:00am 21.9 19.5 10.1 47 6.5 SSW 13 19 7 10 1010.9 1009.5 0.0
16/02:30am 22.3 20.4 9.1 43 7.2 SSW 9 15 5 8 1011.0 1009.6 0.0
16/02:00am 22.9 19.9 5.8 33 8.7 SSW 11 15 6 8 1011.3 1009.9 0.0
16/01:30am 24.1 19.6 2.3 24 10.5 SSW 15 20 8 11 1011.5 1010.1 0.0
16/01:00am 24.9 19.9 1.1 21 11.3 SSW 17 24 9 13 1011.7 1010.3 0.0
16/12:30am 25.0 20.8 1.8 22 11.2 SSW 13 17 7 9 1011.7 1010.3 0.0
16/12:00am 26.0 21.4 1.3 20 11.9 SSW 15 19 8 10 1011.7 1010.3 0.0
 
Date/Time
CDT
Temp
°C
App
Temp
°C
Dew
Point
°C
Rel
Hum
%
Delta-T
°C
Wind Press
QNH
hPa
Press
MSL
hPa
Rain since
9am
mm
Dir  Spd
km/h
Gust
km/h
Spd
kts
Gust
kts
15/11:30pm 26.9 22.4 4.0 23 11.6 SSW 17 22 9 12 1011.6 1010.2 0.0
15/11:00pm 26.8 22.8 5.1 25 11.2 SSW 15 19 8 10 1011.4 1010.0 0.0
15/10:30pm 27.3 23.6 6.1 26 11.2 SSW 15 19 8 10 1011.4 1010.0 0.0
15/10:00pm 28.1 24.9 6.8 26 11.4 SW 13 17 7 9 1011.1 1009.7 0.0
15/09:30pm 29.0 24.8 7.6 26 11.7 SSW 19 24 10 13 1010.7 1009.2 0.0
15/09:00pm 29.9 26.6 9.4 28 11.6 SW 17 20 9 11 1010.4 1008.9 0.0
15/08:30pm 30.5 27.5 9.4 27 12.0 WSW 15 20 8 11 1010.2 1008.7 0.0
15/08:00pm 31.5 28.6 9.7 26 12.5 WSW 15 20 8 11 1009.8 1008.3 0.0
15/07:30pm 32.1 29.7 10.2 26 12.7 SW 13 19 7 10 1009.5 1008.0 0.0
15/07:00pm 33.1 31.4 9.8 24 13.5 WNW 9 15 5 8 1009.2 1007.7 0.0
15/06:30pm 32.9 29.5 9.0 23 13.6 W 17 24 9 13 1009.0 1007.5 0.0
15/06:00pm 33.3 29.8 8.7 22 14.0 W 17 28 9 15 1008.9 1007.4 0.0
15/05:30pm 33.3 29.4 8.7 22 14.0 W 19 28 10 15 1009.0 1007.5 0.0
15/05:00pm 33.9 30.1 9.2 22 14.2 W 19 28 10 15 1008.9 1007.4 0.0
15/04:30pm 33.7 28.6 7.6 20 14.6 WSW 24 37 13 20 1009.1 1007.6 0.0
15/04:05pm 34.2 30.7 8.8 21 14.5 W 17 39 9 21 1009.2 1007.7 0.0
15/04:00pm 33.7 30.9 11.5 26 13.2 WNW 17 39 9 21 1009.3 1007.8 0.0
15/03:30pm 33.7 30.0 11.5 26 13.2 WNW 22 39 12 21 1009.4 1007.9 0.0
15/03:00pm 32.7 29.5 11.8 28 12.4 W 20 35 11 19 1009.7 1008.2 0.0
15/02:30pm 33.2 29.9 11.7 27 12.8 W 20 33 11 18 1010.0 1008.5 0.0
15/02:00pm 33.4 30.4 12.4 28 12.6 WNW 20 39 11 21 1010.3 1008.8 0.0
15/01:30pm 33.3 30.6 12.9 29 12.4 WSW 19 32 10 17 1010.6 1009.1 0.0
15/01:00pm 32.8 29.8 12.4 29 12.2 W 20 33 11 18 1010.9 1009.5 0.0
15/12:30pm 32.3 29.5 12.5 30 11.9 WSW 19 30 10 16 1011.0 1009.6 0.0
15/12:00pm 31.8 30.5 12.6 31 11.5 W 11 24 6 13 1011.3 1009.9 0.0
15/11:30am 31.7 30.2 13.0 32 11.3 SW 13 20 7 11 1011.4 1010.0 0.0
15/11:00am 30.9 29.4 13.2 34 10.7 NNW 13 22 7 12 1011.4 1010.0 0.0
15/10:30am 30.1 29.6 12.5 34 10.5 NNE 7 17 4 9 1011.7 1010.3 0.0
15/10:00am 30.0 29.7 13.3 36 10.1 E 7 15 4 8 1011.7 1010.3 0.0
15/09:30am 28.8 27.7 13.1 38 9.4 ENE 11 20 6 11 1011.8 1010.4 0.0
15/09:00am 27.9 25.5 13.8 42 8.5 E 19 24 10 13 1011.9 1010.5 0.2
15/08:30am 26.5 24.1 13.9 45 7.6 ESE 19 24 10 13 1012.0 1010.6 0.2
15/08:00am 25.4 22.8 13.9 49 6.9 ESE 20 28 11 15 1011.8 1010.4 0.2
15/07:30am 23.8 21.8 13.9 54 5.9 SSE 17 32 9 17 1011.6 1010.2 0.2
15/07:00am 20.7 19.8 12.7 60 4.6 S 9 13 5 7 1011.4 1010.0 0.2
15/06:30am 19.3 17.2 12.3 64 4.0 S 15 19 8 10 1011.2 1009.8 0.2
15/06:00am 19.2 16.7 12.2 64 3.9 S 17 20 9 11 1011.0 1009.6 0.2
15/05:30am 19.1 17.0 12.4 65 3.8 S 15 19 8 10 1010.6 1009.1 0.2
15/05:00am 19.2 16.7 12.2 64 3.9 SSW 17 20 9 11 1010.4 1008.9 0.2
15/04:30am 19.5 16.5 12.5 64 4.0 SSW 20 28 11 15 1010.1 1008.6 0.2
15/04:00am 19.6 16.6 12.4 63 4.1 SSW 20 24 11 13 1010.0 1008.5 0.2
15/03:30am 20.0 16.2 12.5 62 4.3 SSW 24 28 13 15 1010.0 1008.5 0.2
15/03:00am 20.3 17.4 12.8 62 4.3 SSW 20 28 11 15 1010.1 1008.6 0.2
15/02:30am 20.6 17.7 12.8 61 4.5 SSW 20 26 11 14 1010.3 1008.8 0.2
15/02:00am 21.0 17.7 12.9 60 4.7 SSW 22 30 12 16 1010.4 1008.9 0.2
15/01:30am 21.5 17.9 12.9 58 5.0 SSW 24 30 13 16 1010.6 1009.1 0.2
15/01:00am 21.8 18.2 12.9 57 5.1 SSW 24 32 13 17 1010.8 1009.3 0.2
15/12:30am 22.2 19.1 13.3 57 5.2 SSW 22 30 12 16 1011.1 1009.7 0.2
15/12:00am 22.8 19.8 13.6 56 5.4 SSW 22 28 12 15 1011.2 1009.8 0.2
 
Date/Time
CDT
Temp
°C
App
Temp
°C
Dew
Point
°C
Rel
Hum
%
Delta-T
°C
Wind Press
QNH
hPa
Press
MSL
hPa
Rain since
9am
mm
Dir  Spd
km/h
Gust
km/h
Spd
kts
Gust
kts
14/11:30pm 23.1 20.4 13.6 55 5.6 SSW 20 30 11 16 1011.3 1009.9 0.2
14/11:00pm 23.7 19.6 13.8 53 5.9 SSW 28 33 15 18 1011.3 1009.9 0.2
14/10:30pm 24.3 20.3 14.1 53 6.1 SSW 28 35 15 19 1010.9 1009.5 0.2
14/10:00pm 25.1 21.2 14.3 51 6.5 SSW 28 35 15 19 1010.5 1009.0 0.2
14/09:30pm 25.9 21.6 14.4 49 6.9 SSW 30 39 16 21 1010.2 1008.7 0.2
14/09:00pm 26.8 23.6 14.2 46 7.6 SSW 24 32 13 17 1010.0 1008.5 0.2
14/08:30pm 27.4 24.5 14.1 44 8.0 SSW 22 30 12 16 1009.8 1008.3 0.2
14/08:00pm 28.1 24.8 14.0 42 8.5 SSW 24 32 13 17 1009.5 1008.0 0.2
14/07:30pm 29.1 26.2 14.1 40 9.1 SSW 22 30 12 16 1009.3 1007.8 0.2
14/07:00pm 29.7 27.1 13.9 38 9.6 SSW 20 30 11 16 1009.0 1007.5 0.2
14/06:30pm 29.8 27.0 14.4 39 9.4 SSW 22 32 12 17 1009.0 1007.5 0.2
14/06:00pm 29.6 27.3 14.6 40 9.2 S 20 30 11 16 1008.9 1007.4 0.2
14/05:30pm 29.2 27.0 15.0 42 8.8 SSW 20 30 11 16 1009.1 1007.6 0.2
14/05:00pm 28.1 24.6 15.4 46 7.8 SSW 28 35 15 19 1009.3 1007.8 0.2
14/04:30pm 26.7 24.5 16.0 52 6.6 SSW 22 32 12 17 1009.8 1008.3 0.2
14/04:00pm 25.6 22.7 16.2 56 5.8 SSW 26 39 14 21 1009.5 1008.0 0.2
14/03:30pm 25.1 22.2 17.1 61 5.0 SSW 28 37 15 20 1010.3 1008.8 0.2
14/03:00pm 26.3 23.1 16.3 54 6.2 SSW 28 35 15 19 1009.8 1008.3 0.0
14/02:30pm 28.0 25.6 16.3 49 7.3 SW 24 39 13 21 1009.6 1008.1 0.0
14/02:29pm 28.2 26.1 16.1 47 7.6 SW 22 37 12 20 1009.5 1008.0 0.0
14/02:00pm 29.0 27.9 14.4 41 8.9 SSW 13 17 7 9 1009.4 1007.9 0.0
14/01:30pm 29.1 28.7 15.2 42 8.6 SSW 11 15 6 8 1009.4 1007.9 0.0
14/01:00pm 29.3 28.9 15.1 42 8.8 S 11 17 6 9 1010.0 1008.5 0.0
14/12:30pm 27.1 26.9 16.7 53 6.5 S 13 17 7 9 1010.2 1008.7 0.0
14/12:00pm 25.8 25.9 17.4 59 5.3 SE 13 20 7 11 1010.6 1009.1 0.0
14/11:30am 23.3 22.2 17.7 71 3.5 S 20 26 11 14 1011.2 1009.8 0.0
14/11:00am 22.3 19.7 17.9 76 2.8 S 28 39 15 21 1011.0 1009.6 0.0
14/10:30am 22.1 19.9 17.9 77 2.6 SSW 26 35 14 19 1012.3 1010.9 0.0
14/10:00am 26.3 22.0 15.4 51 6.7 SW 32 41 17 22 1011.2 1009.8 0.0
14/09:30am 26.9 23.3 14.3 46 7.6 SSW 26 35 14 19 1010.8 1009.3 0.0
14/09:00am 26.3 23.2 14.4 48 7.2 SW 24 30 13 16 1010.5 1009.0 0.0
14/08:30am 26.4 22.7 13.9 46 7.5 SSW 26 35 14 19 1010.1 1008.6 0.0
14/08:00am 26.1 23.4 13.6 46 7.4 SSW 20 30 11 16 1009.4 1007.9 0.0
14/07:30am 25.7 22.5 13.2 46 7.4 SSW 22 26 12 14 1008.3 1006.9 0.0
14/07:00am 25.9 22.7 13.1 45 7.6 SSW 22 30 12 16 1007.6 1006.2 0.0
14/06:30am 25.9 23.1 12.7 44 7.8 SSW 19 26 10 14 1007.4 1006.0 0.0
14/06:00am 26.2 22.1 11.5 40 8.5 SSW 24 33 13 18 1007.3 1005.8 0.0
14/05:30am 27.0 21.8 10.2 35 9.5 SSW 28 35 15 19 1007.0 1005.5 0.0
14/05:00am 27.3 23.6 9.6 33 9.9 SSW 19 24 10 13 1006.2 1004.7 0.0
14/04:30am 27.7 25.1 9.5 32 10.2 S 13 20 7 11 1006.4 1004.9 0.0
14/04:00am 28.1 25.5 9.4 31 10.5 SSW 13 17 7 9 1006.3 1004.8 0.0
14/03:30am 28.7 27.3 9.4 30 10.9 SSE 7 13 4 7 1006.3 1004.8 0.0
14/03:00am 29.1 25.7 9.3 29 11.2 S 17 24 9 13 1006.5 1005.0 0.0
14/02:30am 28.7 24.0 7.9 27 11.4 SSW 22 28 12 15 1006.5 1005.0 0.0
14/02:00am 28.9 24.7 7.5 26 11.7 SSW 19 22 10 12 1006.6 1005.1 0.0
14/01:30am 29.0 25.1 7.0 25 11.9 S 17 20 9 11 1006.6 1005.1 0.0
14/01:00am 29.5 26.0 7.4 25 12.1 S 15 17 8 9 1006.9 1005.4 0.0
14/12:30am 30.1 26.2 7.3 24 12.5 S 17 20 9 11 1007.3 1005.8 0.0
14/12:00am 30.2 26.2 6.8 23 12.7 SSW 17 20 9 11 1007.1 1005.6 0.0
 
Date/Time
CDT
Temp
°C
App
Temp
°C
Dew
Point
°C
Rel
Hum
%
Delta-T
°C
Wind Press
QNH
hPa
Press
MSL
hPa
Rain since
9am
mm
Dir  Spd
km/h
Gust
km/h
Spd
kts
Gust
kts
13/11:30pm 30.4 26.7 6.3 22 13.0 SSW 15 19 8 10 1007.2 1005.7 0.0
13/11:00pm 31.0 26.5 6.1 21 13.4 SSW 19 24 10 13 1007.2 1005.7 0.0
13/10:30pm 31.7 26.6 6.0 20 13.9 SSW 22 30 12 16 1006.8 1005.3 0.0
13/10:00pm 32.4 28.0 6.6 20 14.1 S 19 28 10 15 1006.5 1005.0 0.0
13/09:30pm 32.8 27.4 6.2 19 14.5 S 24 35 13 19 1006.2 1004.7 0.0

Other Formats:

Comma delimited format used in spreadsheet applications
http://www.bom.gov.au/fwo/IDS60801/IDS60801.94674.axf

JavaScript Object Notation format (JSON) in row-major order
http://www.bom.gov.au/fwo/IDS60801/IDS60801.94674.json